createdAt,value
2022-11-18T00:01:09.832Z,100040.47
2022-11-18T00:04:13.521Z,100037.84
2022-11-18T00:07:17.288Z,100036.13
2022-11-18T00:10:22.456Z,100037.78
2022-11-18T00:13:43.298Z,100044.03
2022-11-18T00:16:47.520Z,100041.50
2022-11-18T00:19:51.411Z,100043.19
2022-11-18T00:22:54.940Z,100046.63
2022-11-18T00:26:04.500Z,100039.75
2022-11-18T00:29:09.863Z,100046.75
2022-11-18T00:32:13.424Z,100051.16
2022-11-18T00:35:17.275Z,100036.59
2022-11-18T00:38:20.824Z,100050.47
2022-11-18T00:41:46.365Z,100053.16
2022-11-18T00:44:49.032Z,100058.38
2022-11-18T00:47:52.793Z,100061.00
2022-11-18T00:50:59.021Z,100057.56
2022-11-18T00:54:02.965Z,100055.97
2022-11-18T00:57:08.042Z,100061.16
2022-11-18T01:00:12.985Z,100068.06
2022-11-18T01:03:16.856Z,100070.72
2022-11-18T01:06:20.973Z,100075.97
2022-11-18T01:09:24.666Z,100068.16
2022-11-18T01:12:51.489Z,100079.44
2022-11-18T01:15:59.844Z,100081.19
2022-11-18T01:19:03.859Z,100078.66
2022-11-18T01:22:07.680Z,100095.09
2022-11-18T01:25:11.423Z,100088.25
2022-11-18T01:28:23.179Z,100092.63
2022-11-18T01:31:27.495Z,100097.78
2022-11-18T01:34:31.333Z,100099.50
2022-11-18T01:37:35.018Z,100099.53
2022-11-18T01:40:39.592Z,100108.09
2022-11-18T01:43:55.145Z,100102.97
2022-11-18T01:46:58.656Z,100114.28
2022-11-18T01:50:03.524Z,100109.06
2022-11-18T01:53:15.984Z,100111.63
2022-11-18T01:56:27.013Z,100114.31
2022-11-18T01:59:38.504Z,100131.59
2022-11-18T02:02:42.820Z,100132.53
2022-11-18T02:05:50.600Z,100130.84
2022-11-18T02:08:55.451Z,100137.72
2022-11-18T02:11:59.196Z,100135.19
2022-11-18T02:15:05.219Z,100134.34
2022-11-18T02:18:20.575Z,100132.56
2022-11-18T02:21:41.012Z,100134.38
2022-11-18T02:25:01.905Z,100130.88
2022-11-18T02:28:27.089Z,100136.13
2022-11-18T02:31:42.907Z,100136.09
2022-11-18T02:34:54.418Z,100135.34
2022-11-18T02:38:04.631Z,100144.06
2022-11-18T02:41:14.361Z,100141.53
2022-11-18T02:44:22.936Z,100147.63
2022-11-18T02:47:31.529Z,100141.53
2022-11-18T02:50:39.623Z,100145.06
2022-11-18T02:53:47.079Z,100149.44
2022-11-18T02:56:53.713Z,100149.50
2022-11-18T02:59:57.595Z,100159.00
2022-11-18T03:03:25.912Z,100172.84
2022-11-18T03:06:35.256Z,100163.34
2022-11-18T03:09:43.493Z,100169.41
2022-11-18T03:13:04.500Z,100173.75
2022-11-18T03:16:15.451Z,100178.09
2022-11-18T03:19:30.723Z,100175.44
2022-11-18T03:22:43.666Z,100183.22
2022-11-18T03:25:54.935Z,100187.66
2022-11-18T03:29:06.285Z,100189.41
2022-11-18T03:32:18.380Z,100192.81
2022-11-18T03:35:28.272Z,100194.59
2022-11-18T03:38:40.340Z,100192.09
2022-11-18T03:41:50.635Z,100202.47
2022-11-18T03:45:00.222Z,100203.34
2022-11-18T03:48:12.442Z,100209.38
2022-11-18T03:51:24.099Z,100207.69
2022-11-18T03:54:34.576Z,100202.56
2022-11-18T03:57:52.961Z,100212.94
2022-11-18T04:01:09.379Z,100215.41
2022-11-18T04:04:14.831Z,100222.44
2022-11-18T04:07:28.122Z,100221.56
2022-11-18T04:10:38.600Z,100231.09
2022-11-18T04:13:42.481Z,100236.28
2022-11-18T04:16:51.149Z,100233.75
2022-11-18T04:19:55.399Z,100243.22
2022-11-18T04:23:00.465Z,100254.50
2022-11-18T04:26:04.032Z,100258.81
2022-11-18T04:29:07.713Z,100258.84
2022-11-18T04:32:11.341Z,100257.94
2022-11-18T04:35:15.908Z,100266.59
2022-11-18T04:38:22.201Z,100265.69
2022-11-18T04:41:45.947Z,100269.19
2022-11-18T04:44:49.540Z,100270.94
2022-11-18T04:47:53.132Z,100276.94
2022-11-18T04:50:58.756Z,100274.38
2022-11-18T04:54:05.481Z,100277.84
2022-11-18T04:57:09.544Z,100288.06
2022-11-18T05:00:14.279Z,100276.06
2022-11-18T05:03:18.035Z,100291.53
2022-11-18T05:06:22.431Z,100297.63
2022-11-18T05:09:31.835Z,100293.25
2022-11-18T05:12:50.760Z,100297.59
2022-11-18T05:15:54.316Z,100301.03
2022-11-18T05:18:57.948Z,100302.84
2022-11-18T05:22:01.964Z,100303.69
2022-11-18T05:25:08.434Z,100306.28
2022-11-18T05:28:12.097Z,100309.78
2022-11-18T05:31:17.956Z,100312.38
2022-11-18T05:34:21.788Z,100317.53
2022-11-18T05:37:25.380Z,100327.94
2022-11-18T05:40:30.411Z,100324.50
2022-11-18T05:43:34.740Z,100327.94
2022-11-18T05:46:47.319Z,100324.50
2022-11-18T05:49:50.941Z,100328.81
2022-11-18T05:52:54.595Z,100332.25
2022-11-18T05:56:07.306Z,100333.19
2022-11-18T05:59:10.896Z,100336.59
2022-11-18T06:02:35.507Z,100340.09
2022-11-18T06:05:42.818Z,100348.66
2022-11-18T06:08:52.556Z,100350.44
2022-11-18T06:12:01.287Z,100351.28
2022-11-18T06:15:12.378Z,100356.44
2022-11-18T06:18:24.888Z,100357.34
2022-11-18T06:21:29.179Z,100340.94
2022-11-18T06:24:33.526Z,100347.84
2022-11-18T06:27:38.579Z,100345.28
2022-11-18T06:30:43.153Z,100354.75
2022-11-18T06:33:46.819Z,100350.41
2022-11-18T06:36:50.468Z,100363.31
2022-11-18T06:39:54.307Z,100366.75
2022-11-18T06:43:17.039Z,100373.66
2022-11-18T06:46:37.643Z,100378.84
2022-11-18T06:49:41.567Z,100375.34
2022-11-18T06:52:45.322Z,100381.41
2022-11-18T06:55:49.136Z,100377.97
2022-11-18T06:58:59.698Z,100389.16
2022-11-18T07:02:03.376Z,100385.72
2022-11-18T07:05:08.398Z,100400.41
2022-11-18T07:08:12.422Z,100403.81
2022-11-18T07:11:18.987Z,100414.19
2022-11-18T07:14:24.131Z,100431.41
2022-11-18T07:17:28.227Z,100430.53
2022-11-18T07:20:31.968Z,100428.00
2022-11-18T07:23:36.644Z,100436.59
2022-11-18T07:26:40.431Z,100444.38
2022-11-18T07:29:45.755Z,100446.13
2022-11-18T07:32:49.608Z,100448.66
2022-11-18T07:35:53.372Z,100466.81
2022-11-18T07:39:00.405Z,100464.22
2022-11-18T07:42:04.160Z,100470.19
2022-11-18T07:45:11.899Z,100477.16
2022-11-18T07:48:15.559Z,100478.00
2022-11-18T07:51:22.505Z,100473.69
2022-11-18T07:54:26.300Z,100490.03
2022-11-18T07:57:30.178Z,100486.63
2022-11-18T08:00:35.156Z,100498.66
2022-11-18T08:03:40.668Z,100497.78
2022-11-18T08:06:44.791Z,100502.13
2022-11-18T08:09:49.752Z,100515.94
2022-11-18T08:12:53.485Z,100512.50
2022-11-18T08:15:59.012Z,100511.63
2022-11-18T08:19:03.047Z,100521.13
2022-11-18T08:22:06.747Z,100539.22
2022-11-18T08:25:11.009Z,100542.66
2022-11-18T08:28:15.784Z,100543.50
2022-11-18T08:31:24.503Z,100539.22
2022-11-18T08:34:28.260Z,100540.94
2022-11-18T08:37:31.896Z,100553.03
2022-11-18T08:40:36.004Z,100553.88
2022-11-18T08:43:39.639Z,100553.91
2022-11-18T08:46:46.229Z,100559.91
2022-11-18T08:49:49.929Z,100559.06
2022-11-18T08:52:53.706Z,100569.44
2022-11-18T08:55:58.361Z,100572.84
2022-11-18T08:59:02.180Z,100579.75
2022-11-18T09:02:07.550Z,100578.03
2022-11-18T09:05:11.261Z,100580.63
2022-11-18T09:08:15.751Z,100578.88
2022-11-18T09:11:22.220Z,100588.38
2022-11-18T09:15:12.296Z,100586.66
2022-11-18T09:17:52.346Z,100590.09
2022-11-18T09:20:57.416Z,100586.63
2022-11-18T09:24:05.932Z,100589.25
2022-11-18T09:27:16.394Z,100605.59
2022-11-18T09:30:21.316Z,100609.91
2022-11-18T09:33:26.508Z,100605.59
2022-11-18T09:36:30.706Z,100618.50
2022-11-18T09:39:37.610Z,100613.38
2022-11-18T09:43:01.888Z,100624.53
2022-11-18T09:46:22.048Z,100618.53
2022-11-18T09:49:31.905Z,100631.44
2022-11-18T09:52:46.119Z,100629.72
2022-11-18T09:55:53.413Z,100637.47
2022-11-18T09:58:58.092Z,100648.66
2022-11-18T10:02:31.424Z,100646.09
2022-11-18T10:05:51.130Z,100645.22
2022-11-18T10:09:15.980Z,100650.38
2022-11-18T10:12:34.520Z,100653.84
2022-11-18T10:15:53.332Z,100659.00
2022-11-18T10:19:08.048Z,100665.91
2022-11-18T10:22:27.553Z,100669.34
2022-11-18T10:25:31.235Z,100671.06
2022-11-18T10:28:35.255Z,100675.38
2022-11-18T10:31:40.772Z,100686.59
2022-11-18T10:34:51.719Z,100685.72
2022-11-18T10:38:08.657Z,100690.03
2022-11-18T10:41:16.848Z,100695.19
2022-11-18T10:44:34.496Z,100698.63
2022-11-18T10:47:38.169Z,100703.81
2022-11-18T10:50:47.191Z,100705.53
2022-11-18T10:54:08.146Z,100712.44
2022-11-18T10:57:20.070Z,100715.88
2022-11-18T11:00:47.344Z,100712.44
2022-11-18T11:04:03.363Z,100713.31
2022-11-18T11:07:28.908Z,100723.63
2022-11-18T11:10:37.182Z,100715.00
2022-11-18T11:13:46.556Z,100715.03
2022-11-18T11:17:04.151Z,100717.63
2022-11-18T11:20:19.539Z,100724.50
2022-11-18T11:23:27.484Z,100713.28
2022-11-18T11:30:21.148Z,100720.19
2022-11-18T11:33:39.661Z,100726.22
2022-11-18T11:36:55.277Z,100728.81
2022-11-18T11:40:23.784Z,100727.94
2022-11-18T11:43:43.696Z,100734.84
2022-11-18T11:47:28.178Z,100728.81
2022-11-18T11:51:04.030Z,100732.25
2022-11-18T11:54:40.602Z,100734.00
2022-11-18T11:58:06.898Z,100746.91
2022-11-18T12:01:21.503Z,100739.13
2022-11-18T12:04:40.662Z,100746.88
2022-11-18T12:07:51.937Z,100746.03
2022-11-18T12:11:05.202Z,100758.94
2022-11-18T12:14:22.727Z,100738.28
2022-11-18T12:17:35.130Z,100756.38
2022-11-18T12:20:44.863Z,100754.63
2022-11-18T12:24:31.257Z,100753.75
2022-11-18T12:28:01.115Z,100752.00
2022-11-18T12:31:36.405Z,100760.66
2022-11-18T12:34:43.622Z,100763.22
2022-11-18T12:38:01.787Z,100768.41
2022-11-18T12:41:45.439Z,100774.41
2022-11-18T12:44:50.491Z,100783.06
2022-11-18T12:48:00.417Z,100783.03
2022-11-18T12:51:49.729Z,100789.88
2022-11-18T12:54:54.117Z,100796.78
2022-11-18T12:57:57.870Z,100801.94
2022-11-18T13:01:11.635Z,100798.56
2022-11-18T13:04:20.055Z,100802.00
2022-11-18T13:07:44.499Z,100791.66
2022-11-18T13:11:14.185Z,100802.84
2022-11-18T13:14:39.063Z,100804.53
2022-11-18T13:17:54.728Z,100810.53
2022-11-18T13:21:20.883Z,100807.09
2022-11-18T13:24:24.995Z,100822.63
2022-11-18T13:27:46.872Z,100812.31
2022-11-18T13:31:01.149Z,100820.03
2022-11-18T13:34:18.057Z,100834.69
2022-11-18T13:37:25.355Z,100837.28
2022-11-18T13:40:39.195Z,100841.59
2022-11-18T13:43:42.769Z,100839.88
2022-11-18T13:46:49.583Z,100849.34
2022-11-18T13:50:05.054Z,100838.03
2022-11-18T13:53:27.586Z,100828.56
2022-11-18T13:56:35.346Z,100847.56
2022-11-18T13:59:42.859Z,100844.91
2022-11-18T14:02:48.334Z,100846.63
2022-11-18T14:05:55.359Z,100855.28
2022-11-18T14:09:19.734Z,100850.09
2022-11-18T14:12:29.048Z,100855.28
2022-11-18T14:15:43.607Z,100853.53
2022-11-18T14:18:50.045Z,100867.31
2022-11-18T14:21:53.721Z,100864.69
2022-11-18T14:25:00.854Z,100872.44
2022-11-18T14:28:22.006Z,100871.56
2022-11-18T14:31:28.710Z,100872.44
2022-11-18T14:34:32.308Z,100876.72
2022-11-18T14:37:36.038Z,100885.34
2022-11-18T14:40:39.549Z,100896.50
2022-11-18T14:43:46.201Z,100893.03
2022-11-18T14:46:53.631Z,100899.94
2022-11-18T14:49:57.445Z,100903.34
2022-11-18T14:53:01.010Z,100901.66
2022-11-18T14:56:04.705Z,100910.25
2022-11-18T14:59:12.925Z,100912.84
2022-11-18T15:02:18.885Z,100912.78
2022-11-18T15:05:22.501Z,100920.63
2022-11-18T15:08:26.051Z,100918.00
2022-11-18T15:11:29.581Z,100922.28
2022-11-18T15:14:35.723Z,100928.28
2022-11-18T15:17:39.305Z,100930.00
2022-11-18T15:20:42.896Z,100937.75
2022-11-18T15:23:46.862Z,100940.31
2022-11-18T15:26:50.706Z,100942.00
2022-11-18T15:30:01.469Z,100952.31
2022-11-18T15:33:05.414Z,100956.53
2022-11-18T15:36:15.465Z,100957.41
2022-11-18T15:39:19.316Z,100958.28
2022-11-18T15:42:23.610Z,100969.50
2022-11-18T15:45:30.028Z,100963.53
2022-11-18T15:48:33.622Z,100966.94
2022-11-18T15:51:37.336Z,100970.47
2022-11-18T15:54:41.053Z,100962.66
2022-11-18T15:57:44.626Z,100969.53
2022-11-18T16:00:49.583Z,100977.28
2022-11-18T16:03:53.640Z,100975.56
2022-11-18T16:06:59.997Z,100979.91
2022-11-18T16:10:17.540Z,100980.81
2022-11-18T16:13:22.767Z,100989.41
2022-11-18T16:16:30.246Z,100998.91
2022-11-18T16:19:33.861Z,100994.56
2022-11-18T16:22:37.431Z,100993.81
2022-11-18T16:25:46.339Z,100992.88
2022-11-18T16:28:50.253Z,100990.31
2022-11-18T16:31:55.276Z,100994.56
2022-11-18T16:35:01.380Z,100992.03
2022-11-18T16:38:08.766Z,101017.81
2022-11-18T16:41:26.230Z,101013.47
2022-11-18T16:44:29.820Z,101024.69
2022-11-18T16:47:34.803Z,101025.56
2022-11-18T16:50:38.482Z,101023.91
2022-11-18T16:53:42.118Z,101023.84
2022-11-18T16:56:46.379Z,101041.06
2022-11-18T16:59:50.126Z,101048.81
2022-11-18T17:02:55.539Z,101052.28
2022-11-18T17:06:21.138Z,101062.63
2022-11-18T17:09:32.226Z,101075.59
2022-11-18T17:12:35.772Z,101081.63
2022-11-18T17:15:54.386Z,101073.78
2022-11-18T17:19:13.144Z,101082.34
2022-11-18T17:22:16.784Z,101087.53
2022-11-18T17:25:25.845Z,101090.19
2022-11-18T17:28:30.578Z,101089.31
2022-11-18T17:31:35.441Z,101105.66
2022-11-18T17:34:40.529Z,101109.94
2022-11-18T17:37:46.757Z,101109.97
2022-11-18T17:40:55.915Z,101108.25
2022-11-18T17:43:59.853Z,101097.03
2022-11-18T17:47:06.805Z,101109.94
2022-11-18T17:50:12.328Z,101118.59
2022-11-18T17:53:17.187Z,101127.22
2022-11-18T17:56:22.473Z,101122.88
2022-11-18T17:59:26.275Z,101137.53
2022-11-18T18:02:30.002Z,101140.06
2022-11-18T18:05:35.041Z,101142.56
2022-11-18T18:08:39.650Z,101149.41
2022-11-18T18:11:43.249Z,101151.13
2022-11-18T18:14:46.002Z,101157.16
2022-11-18T18:17:49.863Z,101163.94
2022-11-18T18:20:54.978Z,101164.81
2022-11-18T18:23:59.687Z,101172.41
2022-11-18T18:27:03.323Z,101169.06
2022-11-18T18:30:08.410Z,101167.22
2022-11-18T18:33:12.086Z,101167.13
2022-11-18T18:36:19.565Z,101179.13
2022-11-18T18:39:23.325Z,101182.44
2022-11-18T18:42:26.995Z,101177.16
2022-11-18T18:45:48.905Z,101180.50
2022-11-18T18:48:52.903Z,101184.84
2022-11-18T18:51:57.851Z,101188.13
2022-11-18T18:55:01.397Z,101184.63
2022-11-18T18:58:05.110Z,101186.25
2022-11-18T19:01:11.163Z,101186.31
2022-11-18T19:04:16.712Z,101186.06
2022-11-18T19:07:22.796Z,101193.72
2022-11-18T19:10:27.021Z,101197.06
2022-11-18T19:13:29.578Z,101206.50
2022-11-18T19:16:33.687Z,101208.94
2022-11-18T19:19:54.597Z,101209.69
2022-11-18T19:26:25.294Z,101221.69
2022-11-18T19:29:28.866Z,101225.84
2022-11-18T19:32:32.756Z,101232.63
2022-11-18T19:35:38.084Z,101230.78
2022-11-18T19:38:43.455Z,101236.72
2022-11-18T19:41:47.243Z,101245.25
2022-11-18T19:44:51.309Z,101253.91
2022-11-18T19:47:55.167Z,101251.09
2022-11-18T19:51:11.619Z,101259.59
2022-11-18T19:54:16.825Z,101268.06
2022-11-18T19:57:20.950Z,101260.25
2022-11-18T20:00:24.694Z,101261.91
2022-11-18T20:03:29.926Z,101264.41
2022-11-18T20:06:36.402Z,101267.75
2022-11-18T20:09:41.829Z,101271.09
2022-11-18T20:12:45.365Z,101276.22
2022-11-18T20:15:49.116Z,101274.50
2022-11-18T20:18:55.937Z,101283.84
2022-11-18T20:21:59.747Z,101280.50
2022-11-18T20:25:05.223Z,101279.56
2022-11-18T20:28:12.324Z,101282.94
2022-11-18T20:31:21.038Z,101278.50
2022-11-18T20:34:24.911Z,101281.97
2022-11-18T20:37:29.434Z,101281.88
2022-11-18T20:40:34.684Z,101286.97
2022-11-18T20:43:40.713Z,101289.53
2022-11-18T20:46:44.474Z,101288.72
2022-11-18T20:49:48.819Z,101292.91
2022-11-18T20:52:53.579Z,101293.81
2022-11-18T20:55:59.259Z,101307.47
2022-11-18T20:59:03.250Z,101305.69
2022-11-18T21:02:06.975Z,101311.72
2022-11-18T21:05:11.021Z,101306.59
2022-11-18T21:08:15.663Z,101315.19
2022-11-18T21:11:20.717Z,101312.53
2022-11-18T21:14:25.924Z,101323.28
2022-11-18T21:17:29.911Z,101324.63
2022-11-18T21:20:51.534Z,101327.22
2022-11-18T21:23:56.603Z,101333.00
2022-11-18T21:27:03.859Z,101342.44
2022-11-18T21:30:09.429Z,101349.25
2022-11-18T21:33:14.594Z,101343.16
2022-11-18T21:36:19.983Z,101342.34
2022-11-18T21:39:24.912Z,101343.25
2022-11-18T21:42:30.110Z,101350.97
2022-11-18T21:45:45.868Z,101351.69
2022-11-18T21:49:06.775Z,101354.22
2022-11-18T21:52:10.609Z,101363.53
2022-11-18T21:55:14.480Z,101357.41
2022-11-18T21:58:20.093Z,101361.75
2022-11-18T22:01:25.902Z,101364.97
2022-11-18T22:04:47.160Z,101370.09
2022-11-18T22:07:50.915Z,101376.22
2022-11-18T22:10:54.522Z,101370.09
2022-11-18T22:13:59.824Z,101378.59
2022-11-18T22:17:03.668Z,101373.38
2022-11-18T22:20:09.801Z,101383.63
2022-11-18T22:23:14.566Z,101384.50
2022-11-18T22:26:21.077Z,101380.88
2022-11-18T22:29:26.748Z,101386.81
2022-11-18T22:32:30.411Z,101384.97
2022-11-18T22:35:33.970Z,101386.69
2022-11-18T22:38:38.152Z,101396.97
2022-11-18T22:42:01.821Z,101393.66
2022-11-18T22:45:09.044Z,101396.84
2022-11-18T22:48:13.439Z,101404.47
2022-11-18T22:51:17.213Z,101410.38
2022-11-18T22:54:38.379Z,101415.59
2022-11-18T22:57:44.234Z,101413.69
2022-11-18T23:00:49.355Z,101423.19
2022-11-18T23:03:53.664Z,101417.28
2022-11-18T23:06:57.388Z,101423.09
2022-11-18T23:10:02.383Z,101422.16
2022-11-18T23:13:23.166Z,101425.59
2022-11-18T23:16:32.914Z,101428.97
2022-11-18T23:19:41.914Z,101430.56
2022-11-18T23:22:45.792Z,101428.91
2022-11-18T23:25:49.383Z,101432.28
2022-11-18T23:28:54.021Z,101436.44
2022-11-18T23:31:58.970Z,101434.66
2022-11-18T23:35:02.647Z,101445.00
2022-11-18T23:38:06.254Z,101447.53
2022-11-18T23:41:12.743Z,101456.72
2022-11-18T23:44:16.358Z,101450.84
2022-11-18T23:47:21.439Z,101456.81
2022-11-18T23:50:25.049Z,101447.28
2022-11-18T23:53:30.297Z,101455.78
2022-11-18T23:56:37.806Z,101454.91
2022-11-18T23:59:42.165Z,101453.81
